createdAt,value
2018-06-29T00:01:15.139Z,98683.30
2018-06-29T00:03:42.366Z,98677.12
2018-06-29T00:06:09.654Z,98681.41
2018-06-29T00:08:37.001Z,98690.34
2018-06-29T00:11:04.273Z,98682.27
2018-06-29T00:13:31.544Z,98685.73
2018-06-29T00:16:01.353Z,98680.91
2018-06-29T00:21:18.840Z,98686.80
2018-06-29T00:23:46.058Z,98690.33
2018-06-29T00:26:13.323Z,98685.61
2018-06-29T00:28:40.566Z,98694.14
2018-06-29T00:31:07.818Z,98690.47
2018-06-29T00:33:35.078Z,98695.23
2018-06-29T00:36:02.313Z,98694.29
2018-06-29T00:38:29.522Z,98679.76
2018-06-29T00:40:56.800Z,98696.69
2018-06-29T00:43:24.085Z,98693.13
2018-06-29T00:45:51.376Z,98691.36
2018-06-29T00:48:18.661Z,98691.39
2018-06-29T00:50:45.923Z,98691.33
2018-06-29T00:53:13.218Z,98689.05
2018-06-29T00:55:40.488Z,98693.91
2018-06-29T00:58:07.724Z,98697.52
2018-06-29T01:00:35.034Z,98697.58
2018-06-29T01:03:02.265Z,98701.45
2018-06-29T01:05:29.551Z,98699.59
2018-06-29T01:07:56.832Z,98700.23
2018-06-29T01:10:24.122Z,98693.90
2018-06-29T01:12:51.385Z,98704.16
2018-06-29T01:15:18.640Z,98695.23
2018-06-29T01:17:45.946Z,98693.90
2018-06-29T01:20:13.173Z,98697.51
2018-06-29T01:22:40.434Z,98707.04
2018-06-29T01:25:07.862Z,98702.01
2018-06-29T01:27:35.157Z,98701.77
2018-06-29T01:30:02.422Z,98700.69
2018-06-29T01:32:29.706Z,98694.02
2018-06-29T01:34:56.950Z,98691.63
2018-06-29T01:37:24.222Z,98681.73
2018-06-29T01:39:51.453Z,98686.12
2018-06-29T01:42:18.751Z,98687.83
2018-06-29T01:44:45.998Z,98684.64
2018-06-29T01:47:13.284Z,98676.55
2018-06-29T01:49:40.514Z,98679.31
2018-06-29T01:52:07.794Z,98678.56
2018-06-29T01:54:35.060Z,98673.70
2018-06-29T01:57:02.316Z,98670.37
2018-06-29T01:59:29.597Z,98663.36
2018-06-29T02:01:56.873Z,98671.08
2018-06-29T02:04:24.128Z,98666.31
2018-06-29T02:06:51.399Z,98662.27
2018-06-29T02:09:18.664Z,98666.26
2018-06-29T02:11:45.979Z,98670.97
2018-06-29T02:14:13.289Z,98667.72
2018-06-29T02:16:40.561Z,98673.98
2018-06-29T02:19:07.805Z,98676.12
2018-06-29T02:21:35.036Z,98677.53
2018-06-29T02:24:02.370Z,98677.15
2018-06-29T02:26:29.637Z,98671.11
2018-06-29T02:28:56.890Z,98668.16
2018-06-29T02:31:24.099Z,98671.97
2018-06-29T02:33:51.523Z,98660.55
2018-06-29T02:36:18.770Z,98661.70
2018-06-29T02:38:46.069Z,98658.75
2018-06-29T02:41:13.323Z,98665.70
2018-06-29T02:43:40.586Z,98666.26
2018-06-29T02:46:07.866Z,98669.31
2018-06-29T02:48:35.193Z,98665.31
2018-06-29T02:51:02.470Z,98655.43
2018-06-29T02:53:29.965Z,98657.33
2018-06-29T02:55:57.336Z,98651.61
2018-06-29T02:58:24.724Z,98651.91
2018-06-29T03:00:52.152Z,98644.26
2018-06-29T03:03:19.543Z,98647.57
2018-06-29T03:05:46.944Z,98646.25
2018-06-29T03:08:14.336Z,98646.83
2018-06-29T03:10:41.817Z,98653.63
2018-06-29T03:13:09.212Z,98657.41
2018-06-29T03:15:36.662Z,98654.95
2018-06-29T03:18:04.160Z,98665.08
2018-06-29T03:20:32.964Z,98662.58
2018-06-29T03:23:00.695Z,98656.45
2018-06-29T03:25:29.433Z,98664.75
2018-06-29T03:27:56.755Z,98663.55
2018-06-29T03:30:24.163Z,98673.30
2018-06-29T03:33:08.261Z,98676.41
2018-06-29T03:35:35.681Z,98669.99
2018-06-29T03:38:03.151Z,98658.45
2018-06-29T03:40:30.683Z,98660.30
2018-06-29T03:42:58.182Z,98661.38
2018-06-29T03:45:25.599Z,98660.56
2018-06-29T03:47:53.122Z,98663.69
2018-06-29T03:50:20.501Z,98664.05
2018-06-29T03:52:47.883Z,98668.66
2018-06-29T03:55:15.448Z,98661.47
2018-06-29T03:57:42.783Z,98657.47
2018-06-29T04:00:10.314Z,98660.55
2018-06-29T04:02:37.747Z,98666.95
2018-06-29T04:05:05.129Z,98669.01
2018-06-29T04:07:32.456Z,98670.56
2018-06-29T04:09:59.800Z,98658.63
2018-06-29T04:12:27.139Z,98662.95
2018-06-29T04:14:54.740Z,98662.70
2018-06-29T04:17:22.304Z,98663.09
2018-06-29T04:19:49.695Z,98665.63
2018-06-29T04:22:17.059Z,98663.48
2018-06-29T04:24:44.530Z,98666.02
2018-06-29T04:27:12.532Z,98662.97
2018-06-29T04:29:39.984Z,98667.08
2018-06-29T04:32:07.310Z,98671.03
2018-06-29T04:34:35.429Z,98676.95
2018-06-29T04:37:03.728Z,98678.41
2018-06-29T04:39:31.123Z,98675.67
2018-06-29T04:41:58.559Z,98679.06
2018-06-29T04:44:26.003Z,98670.64
2018-06-29T04:46:53.386Z,98663.71
2018-06-29T04:49:20.790Z,98659.02
2018-06-29T04:51:48.113Z,98649.68
2018-06-29T04:54:15.484Z,98654.20
2018-06-29T04:56:42.994Z,98652.00
2018-06-29T04:59:10.321Z,98650.20
2018-06-29T05:01:37.858Z,98652.95
2018-06-29T05:04:05.219Z,98655.44
2018-06-29T05:06:32.688Z,98655.05
2018-06-29T05:09:00.067Z,98652.28
2018-06-29T05:11:27.609Z,98647.42
2018-06-29T05:13:54.999Z,98655.48
2018-06-29T05:16:22.387Z,98644.73
2018-06-29T05:18:49.715Z,98643.08
2018-06-29T05:21:17.109Z,98650.36
2018-06-29T05:23:44.479Z,98652.84
2018-06-29T05:26:11.936Z,98646.41
2018-06-29T05:28:40.277Z,98639.06
2018-06-29T05:31:07.717Z,98649.36
2018-06-29T05:33:35.135Z,98649.20
2018-06-29T05:36:02.533Z,98644.20
2018-06-29T05:38:29.869Z,98644.61
2018-06-29T05:40:57.298Z,98635.86
2018-06-29T05:43:25.031Z,98638.46
2018-06-29T05:45:52.520Z,98638.30
2018-06-29T05:48:20.181Z,98651.20
2018-06-29T05:50:47.547Z,98650.78
2018-06-29T05:53:14.913Z,98651.77
2018-06-29T05:55:43.062Z,98650.29
2018-06-29T05:58:10.809Z,98653.81
2018-06-29T06:00:38.763Z,98649.52
2018-06-29T06:03:06.387Z,98656.53
2018-06-29T06:05:34.912Z,98659.33
2018-06-29T06:08:02.547Z,98662.16
2018-06-29T06:10:29.985Z,98662.13
2018-06-29T06:12:57.398Z,98663.72
2018-06-29T06:15:24.905Z,98666.06
2018-06-29T06:17:52.706Z,98670.86
2018-06-29T06:20:20.144Z,98680.06
2018-06-29T06:22:47.629Z,98678.28
2018-06-29T06:25:15.022Z,98684.27
2018-06-29T06:27:42.564Z,98685.64
2018-06-29T06:30:10.065Z,98678.83
2018-06-29T06:32:37.458Z,98674.30
2018-06-29T06:35:05.788Z,98681.47
2018-06-29T06:37:33.169Z,98670.98
2018-06-29T06:40:00.575Z,98682.08
2018-06-29T06:42:28.836Z,98678.91
2018-06-29T06:44:56.179Z,98678.78
2018-06-29T06:47:23.628Z,98676.82
2018-06-29T06:49:51.150Z,98679.52
2018-06-29T06:52:18.535Z,98670.78
2018-06-29T06:54:46.906Z,98670.57
2018-06-29T06:57:14.242Z,98674.53
2018-06-29T06:59:41.661Z,98683.57
2018-06-29T07:02:09.020Z,98672.53
2018-06-29T07:04:36.385Z,98670.62
2018-06-29T07:07:03.792Z,98674.14
2018-06-29T07:09:31.219Z,98676.83
2018-06-29T07:11:58.581Z,98673.03
2018-06-29T07:14:25.970Z,98669.05
2018-06-29T07:16:53.383Z,98670.31
2018-06-29T07:19:20.812Z,98668.48
2018-06-29T07:21:48.179Z,98675.70
2018-06-29T07:24:15.555Z,98669.89
2018-06-29T07:26:42.918Z,98667.22
2018-06-29T07:29:10.341Z,98664.33
2018-06-29T07:31:37.736Z,98660.81
2018-06-29T07:34:05.142Z,98660.61
2018-06-29T07:36:33.422Z,98660.23
2018-06-29T07:39:00.864Z,98661.64
2018-06-29T07:41:28.646Z,98660.51
2018-06-29T07:43:56.160Z,98655.19
2018-06-29T07:46:23.516Z,98659.59
2018-06-29T07:48:51.546Z,98653.78
2018-06-29T07:51:18.968Z,98653.02
2018-06-29T07:53:46.544Z,98649.12
2018-06-29T07:56:14.681Z,98649.97
2018-06-29T07:58:42.097Z,98659.89
2018-06-29T08:01:09.438Z,98649.00
2018-06-29T08:03:37.798Z,98650.06
2018-06-29T08:06:05.235Z,98655.53
2018-06-29T08:08:33.115Z,98645.20
2018-06-29T08:11:00.653Z,98638.14
2018-06-29T08:13:28.565Z,98635.52
2018-06-29T08:15:56.123Z,98628.05
2018-06-29T08:18:24.566Z,98629.91
2018-06-29T08:20:52.012Z,98628.81
2018-06-29T08:23:19.991Z,98632.00
2018-06-29T08:25:47.928Z,98627.95
2018-06-29T08:28:15.876Z,98625.95
2018-06-29T08:30:43.352Z,98626.73
2018-06-29T08:33:10.748Z,98623.11
2018-06-29T08:35:38.586Z,98619.98
2018-06-29T08:38:06.795Z,98613.11
2018-06-29T08:40:34.242Z,98611.80
2018-06-29T08:43:01.666Z,98601.04
2018-06-29T08:45:29.208Z,98600.43
2018-06-29T08:47:57.238Z,98602.38
2018-06-29T08:50:24.711Z,98599.51
2018-06-29T08:52:52.133Z,98594.93
2018-06-29T08:55:19.514Z,98608.70
2018-06-29T08:57:47.170Z,98602.44
2018-06-29T09:00:14.535Z,98588.68
2018-06-29T09:02:41.908Z,98589.98
2018-06-29T09:05:09.282Z,98585.17
2018-06-29T09:07:36.756Z,98585.58
2018-06-29T09:10:05.692Z,98580.17
2018-06-29T09:12:33.643Z,98581.13
2018-06-29T09:15:01.647Z,98587.70
2018-06-29T09:17:29.069Z,98584.45
2018-06-29T09:19:57.966Z,98576.70
2018-06-29T09:22:26.003Z,98577.63
2018-06-29T09:24:54.104Z,98583.15
2018-06-29T09:27:21.582Z,98581.27
2018-06-29T09:29:48.872Z,98581.47
2018-06-29T09:32:16.287Z,98580.72
2018-06-29T09:34:44.174Z,98571.50
2018-06-29T09:37:11.616Z,98569.94
2018-06-29T09:39:38.986Z,98564.56
2018-06-29T09:42:06.806Z,98560.44
2018-06-29T09:44:34.752Z,98554.77
2018-06-29T09:47:02.213Z,98551.95
2018-06-29T09:49:29.613Z,98554.53
2018-06-29T09:51:56.947Z,98558.08
2018-06-29T09:54:24.390Z,98557.45
2018-06-29T09:56:51.778Z,98555.93
2018-06-29T09:59:19.266Z,98555.73
2018-06-29T10:01:46.712Z,98558.87
2018-06-29T10:04:14.742Z,98552.13
2018-06-29T10:06:42.334Z,98554.58
2018-06-29T10:09:10.852Z,98550.01
2018-06-29T10:11:38.270Z,98555.09
2018-06-29T10:14:06.051Z,98553.03
2018-06-29T10:16:33.450Z,98546.89
2018-06-29T10:19:01.037Z,98544.51
2018-06-29T10:21:28.485Z,98556.20
2018-06-29T10:23:55.859Z,98545.59
2018-06-29T10:26:24.184Z,98541.97
2018-06-29T10:28:51.549Z,98538.75
2018-06-29T10:31:19.602Z,98539.23
2018-06-29T10:33:47.022Z,98536.40
2018-06-29T10:36:14.678Z,98529.09
2018-06-29T10:38:42.090Z,98531.47
2018-06-29T10:41:09.591Z,98531.27
2018-06-29T10:43:37.003Z,98532.25
2018-06-29T10:46:04.546Z,98524.98
2018-06-29T10:48:31.967Z,98521.11
2018-06-29T10:50:59.387Z,98511.12
2018-06-29T10:53:26.950Z,98522.06
2018-06-29T10:55:54.374Z,98519.93
2018-06-29T10:58:21.737Z,98511.46
2018-06-29T11:00:49.331Z,98509.01
2018-06-29T11:03:16.746Z,98513.78
2018-06-29T11:05:44.198Z,98510.05
2018-06-29T11:08:11.583Z,98514.11
2018-06-29T11:10:38.966Z,98509.20
2018-06-29T11:13:06.637Z,98505.33
2018-06-29T11:15:34.252Z,98498.06
2018-06-29T11:18:01.682Z,98489.35
2018-06-29T11:20:29.091Z,98487.16
2018-06-29T11:22:57.070Z,98479.46
2018-06-29T11:25:25.186Z,98489.67
2018-06-29T11:27:52.652Z,98492.53
2018-06-29T11:30:20.140Z,98493.28
2018-06-29T11:32:47.877Z,98489.28
2018-06-29T11:35:15.268Z,98477.53
2018-06-29T11:37:42.694Z,98477.63
2018-06-29T11:40:10.991Z,98485.63
2018-06-29T11:42:38.446Z,98475.58
2018-06-29T11:45:08.119Z,98472.95
2018-06-29T11:47:35.653Z,98468.13
2018-06-29T11:50:03.250Z,98469.59
2018-06-29T11:52:30.663Z,98468.63
2018-06-29T11:54:58.553Z,98469.08
2018-06-29T11:57:26.813Z,98452.27
2018-06-29T11:59:54.934Z,98454.09
2018-06-29T12:02:22.389Z,98454.02
2018-06-29T12:04:52.017Z,98446.13
2018-06-29T12:07:19.633Z,98449.22
2018-06-29T12:09:47.800Z,98432.36
2018-06-29T12:12:15.262Z,98433.63
2018-06-29T12:14:42.941Z,98438.85
2018-06-29T12:17:11.045Z,98443.55
2018-06-29T12:19:39.415Z,98437.47
2018-06-29T12:22:06.806Z,98434.63
2018-06-29T12:24:34.298Z,98439.97
2018-06-29T12:27:02.003Z,98430.89
2018-06-29T12:29:30.125Z,98418.50
2018-06-29T12:31:57.617Z,98418.48
2018-06-29T12:34:25.102Z,98416.31
2018-06-29T12:36:52.640Z,98409.63
2018-06-29T12:39:20.384Z,98411.03
2018-06-29T12:41:48.035Z,98412.05
2018-06-29T12:44:15.574Z,98402.20
2018-06-29T12:46:43.884Z,98401.47
2018-06-29T12:49:11.483Z,98398.76
2018-06-29T12:51:39.014Z,98398.41
2018-06-29T12:54:06.608Z,98398.33
2018-06-29T12:56:34.159Z,98394.66
2018-06-29T12:59:01.590Z,98387.38
2018-06-29T13:01:29.229Z,98390.00
2018-06-29T13:03:57.289Z,98382.05
2018-06-29T13:06:24.725Z,98383.27
2018-06-29T13:08:52.188Z,98374.66
2018-06-29T13:11:20.331Z,98381.53
2018-06-29T13:13:47.796Z,98375.84
2018-06-29T13:16:15.238Z,98367.95
2018-06-29T13:18:42.688Z,98366.45
2018-06-29T13:21:11.155Z,98365.41
2018-06-29T13:23:38.467Z,98370.64
2018-06-29T13:26:06.229Z,98364.74
2018-06-29T13:28:33.557Z,98355.85
2018-06-29T13:31:01.069Z,98363.37
2018-06-29T13:33:28.533Z,98361.84
2018-06-29T13:35:55.939Z,98357.81
2018-06-29T13:38:23.583Z,98350.35
2018-06-29T13:40:51.012Z,98350.47
2018-06-29T13:43:18.337Z,98341.03
2018-06-29T13:45:45.986Z,98352.63
2018-06-29T13:48:14.110Z,98343.08
2018-06-29T13:50:41.516Z,98345.42
2018-06-29T13:53:08.922Z,98346.59
2018-06-29T13:55:36.337Z,98338.87
2018-06-29T13:58:03.842Z,98333.09
2018-06-29T14:00:31.453Z,98334.42
2018-06-29T14:02:59.467Z,98332.20
2018-06-29T14:05:27.415Z,98326.55
2018-06-29T14:07:54.819Z,98321.31
2018-06-29T14:10:22.222Z,98311.83
2018-06-29T14:12:49.951Z,98321.33
2018-06-29T14:15:17.528Z,98317.81
2018-06-29T14:17:45.012Z,98320.48
2018-06-29T14:20:12.597Z,98316.37
2018-06-29T14:22:39.914Z,98315.08
2018-06-29T14:25:08.571Z,98314.73
2018-06-29T14:27:36.802Z,98305.41
2018-06-29T14:30:04.387Z,98307.14
2018-06-29T14:32:31.762Z,98310.87
2018-06-29T14:34:59.136Z,98294.89
2018-06-29T14:37:26.548Z,98297.94
2018-06-29T14:39:53.966Z,98299.48
2018-06-29T14:42:21.350Z,98294.73
2018-06-29T14:44:48.724Z,98291.33
2018-06-29T14:47:16.171Z,98282.83
2018-06-29T14:49:43.593Z,98286.20
2018-06-29T14:52:10.979Z,98282.19
2018-06-29T14:54:40.021Z,98286.92
2018-06-29T14:57:08.123Z,98277.07
2018-06-29T14:59:35.535Z,98272.98
2018-06-29T15:02:02.966Z,98264.42
2018-06-29T15:04:30.318Z,98269.91
2018-06-29T15:06:57.992Z,98271.63
2018-06-29T15:09:25.495Z,98265.53
2018-06-29T15:11:52.909Z,98262.48
2018-06-29T15:14:20.325Z,98264.27
2018-06-29T15:16:47.718Z,98263.51
2018-06-29T15:19:15.117Z,98265.66
2018-06-29T15:21:43.159Z,98263.34
2018-06-29T15:24:10.617Z,98255.97
2018-06-29T15:26:38.027Z,98256.54
2018-06-29T15:29:05.694Z,98261.41
2018-06-29T15:31:33.872Z,98261.48
2018-06-29T15:34:01.247Z,98261.02
2018-06-29T15:36:28.632Z,98257.55
2018-06-29T15:38:56.003Z,98249.93
2018-06-29T15:41:23.363Z,98254.17
2018-06-29T15:43:50.795Z,98255.16
2018-06-29T15:46:19.104Z,98251.29
2018-06-29T15:48:46.519Z,98250.34
2018-06-29T15:51:14.430Z,98246.70
2018-06-29T15:53:42.356Z,98243.40
2018-06-29T15:56:09.915Z,98252.60
2018-06-29T15:58:37.353Z,98243.63
2018-06-29T16:01:04.843Z,98249.73
2018-06-29T16:03:32.169Z,98242.63
2018-06-29T16:05:59.556Z,98243.27
2018-06-29T16:08:26.963Z,98244.89
2018-06-29T16:10:55.928Z,98245.87
2018-06-29T16:13:23.894Z,98239.67
2018-06-29T16:15:52.006Z,98243.42
2018-06-29T16:18:19.737Z,98241.64
2018-06-29T16:20:47.292Z,98241.98
2018-06-29T16:23:14.758Z,98239.49
2018-06-29T16:25:43.188Z,98240.32
2018-06-29T16:28:10.717Z,98238.05
2018-06-29T16:30:38.291Z,98236.08
2018-06-29T16:33:06.055Z,98233.37
2018-06-29T16:35:34.225Z,98233.59
2018-06-29T16:38:03.981Z,98235.79
2018-06-29T16:40:31.669Z,98238.45
2018-06-29T16:42:59.978Z,98227.80
2018-06-29T16:45:29.261Z,98226.73
2018-06-29T16:47:57.037Z,98233.32
2018-06-29T16:50:24.671Z,98228.43
2018-06-29T16:52:52.333Z,98232.48
2018-06-29T16:55:20.546Z,98224.24
2018-06-29T16:57:50.016Z,98225.55
2018-06-29T17:00:18.316Z,98222.27
2018-06-29T17:02:50.816Z,98220.53
2018-06-29T17:05:18.814Z,98226.83
2018-06-29T17:07:47.179Z,98218.72
2018-06-29T17:10:15.745Z,98213.70
2018-06-29T17:12:43.283Z,98217.02
2018-06-29T17:15:11.061Z,98225.11
2018-06-29T17:17:40.203Z,98226.84
2018-06-29T17:20:08.760Z,98220.93
2018-06-29T17:22:36.761Z,98224.36
2018-06-29T17:25:05.260Z,98220.52
2018-06-29T17:27:33.659Z,98221.48
2018-06-29T17:30:02.293Z,98222.61
2018-06-29T17:32:30.508Z,98222.44
2018-06-29T17:34:58.120Z,98219.63
2018-06-29T17:37:27.199Z,98223.91
2018-06-29T17:39:57.123Z,98223.16
2018-06-29T17:42:27.190Z,98219.20
2018-06-29T17:44:56.556Z,98223.66
2018-06-29T17:47:24.433Z,98231.45
2018-06-29T17:49:52.122Z,98219.61
2018-06-29T17:52:19.845Z,98227.55
2018-06-29T17:54:47.411Z,98222.27
2018-06-29T17:57:15.464Z,98224.24
2018-06-29T17:59:45.953Z,98220.83
2018-06-29T18:02:13.971Z,98223.11
2018-06-29T18:04:43.818Z,98222.85
2018-06-29T18:07:11.521Z,98224.20
2018-06-29T18:09:40.262Z,98225.67
2018-06-29T18:12:07.725Z,98230.72
2018-06-29T18:14:35.123Z,98231.59
2018-06-29T18:17:02.542Z,98238.56
2018-06-29T18:19:29.961Z,98231.69
2018-06-29T18:21:57.518Z,98233.34
2018-06-29T18:24:24.983Z,98234.25
2018-06-29T18:26:52.442Z,98242.06
2018-06-29T18:29:20.079Z,98240.87
2018-06-29T18:31:48.261Z,98237.19
2018-06-29T18:34:15.820Z,98249.31
2018-06-29T18:36:44.163Z,98248.84
2018-06-29T18:39:15.182Z,98244.80
2018-06-29T18:41:44.350Z,98249.75
2018-06-29T18:44:12.452Z,98250.73
2018-06-29T18:46:40.368Z,98248.59
2018-06-29T18:49:09.183Z,98250.48
2018-06-29T18:51:37.418Z,98254.59
2018-06-29T18:54:06.175Z,98258.19
2018-06-29T18:56:34.997Z,98262.86
2018-06-29T18:59:03.323Z,98256.83
2018-06-29T19:01:32.256Z,98267.70
2018-06-29T19:04:02.283Z,98273.27
2018-06-29T19:06:30.953Z,98269.27
2018-06-29T19:09:00.209Z,98274.70
2018-06-29T19:11:27.667Z,98278.99
2018-06-29T19:13:55.320Z,98280.02
2018-06-29T19:16:24.926Z,98278.98
2018-06-29T19:18:54.852Z,98280.11
2018-06-29T19:21:26.807Z,98282.47
2018-06-29T19:23:55.423Z,98278.66
2018-06-29T19:26:25.251Z,98278.31
2018-06-29T19:28:53.483Z,98284.98
2018-06-29T19:31:22.804Z,98282.19
2018-06-29T19:33:53.331Z,98288.23
2018-06-29T19:36:22.339Z,98292.28
2018-06-29T19:38:51.418Z,98293.41
2018-06-29T19:41:20.562Z,98292.16
2018-06-29T19:43:48.938Z,98297.38
2018-06-29T19:46:16.744Z,98296.50
2018-06-29T19:48:44.437Z,98301.85
2018-06-29T19:51:12.758Z,98302.34
2018-06-29T19:53:40.781Z,98294.81
2018-06-29T19:56:09.174Z,98297.66
2018-06-29T19:58:36.916Z,98308.44
2018-06-29T20:01:04.912Z,98309.98
2018-06-29T20:03:32.868Z,98314.23
2018-06-29T20:06:02.232Z,98318.13
2018-06-29T20:08:32.526Z,98318.48
2018-06-29T20:11:01.155Z,98316.00
2018-06-29T20:13:28.640Z,98321.97
2018-06-29T20:15:56.961Z,98334.05
2018-06-29T20:18:24.611Z,98326.70
2018-06-29T20:20:52.877Z,98329.95
2018-06-29T20:23:21.758Z,98329.94
2018-06-29T20:25:50.641Z,98329.53
2018-06-29T20:28:19.142Z,98327.58
2018-06-29T20:30:47.324Z,98330.92
2018-06-29T20:33:17.205Z,98334.03
2018-06-29T20:35:46.094Z,98336.84
2018-06-29T20:38:13.394Z,98333.91
2018-06-29T20:40:40.700Z,98334.53
2018-06-29T20:43:07.982Z,98335.33
2018-06-29T20:45:35.290Z,98342.96
2018-06-29T20:48:02.585Z,98341.27
2018-06-29T20:50:29.860Z,98338.52
2018-06-29T20:52:57.169Z,98347.77
2018-06-29T20:55:24.442Z,98352.56
2018-06-29T20:57:51.726Z,98352.64
2018-06-29T21:00:20.027Z,98352.95
2018-06-29T21:02:47.269Z,98357.54
2018-06-29T21:05:14.542Z,98357.23
2018-06-29T21:07:41.784Z,98360.75
2018-06-29T21:10:09.089Z,98359.79
2018-06-29T21:12:36.371Z,98359.25
2018-06-29T21:15:03.750Z,98365.93
2018-06-29T21:17:30.999Z,98378.14
2018-06-29T21:19:58.219Z,98381.67
2018-06-29T21:22:25.464Z,98383.48
2018-06-29T21:24:52.681Z,98375.48
2018-06-29T21:27:19.982Z,98379.05
2018-06-29T21:29:47.227Z,98384.78
2018-06-29T21:32:14.622Z,98381.33
2018-06-29T21:34:41.899Z,98384.38
2018-06-29T21:37:09.336Z,98387.50
2018-06-29T21:39:36.608Z,98389.24
2018-06-29T21:42:04.833Z,98387.13
2018-06-29T21:44:32.106Z,98394.27
2018-06-29T21:46:59.375Z,98388.85
2018-06-29T21:49:26.594Z,98387.58
2018-06-29T21:51:53.856Z,98395.97
2018-06-29T21:54:21.163Z,98402.23
2018-06-29T21:56:48.426Z,98398.40
2018-06-29T21:59:15.687Z,98407.53
2018-06-29T22:01:42.986Z,98405.32
2018-06-29T22:04:10.336Z,98418.20
2018-06-29T22:06:37.624Z,98415.59
2018-06-29T22:09:06.562Z,98421.23
2018-06-29T22:11:33.834Z,98427.75
2018-06-29T22:14:01.118Z,98429.93
2018-06-29T22:16:28.402Z,98437.25
2018-06-29T22:18:55.703Z,98439.44
2018-06-29T22:21:22.948Z,98440.39
2018-06-29T22:23:50.197Z,98438.77
2018-06-29T22:26:17.473Z,98446.84
2018-06-29T22:28:44.863Z,98439.11
2018-06-29T22:31:12.163Z,98447.34
2018-06-29T22:33:39.436Z,98450.95
2018-06-29T22:36:06.746Z,98454.45
2018-06-29T22:38:34.012Z,98462.92
2018-06-29T22:41:01.253Z,98467.94
2018-06-29T22:43:28.546Z,98467.23
2018-06-29T22:45:55.897Z,98466.31
2018-06-29T22:48:23.157Z,98465.95
2018-06-29T22:50:50.389Z,98466.77
2018-06-29T22:53:17.640Z,98465.20
2018-06-29T22:55:45.572Z,98457.51
2018-06-29T22:58:12.823Z,98474.55
2018-06-29T23:00:40.082Z,98475.63
2018-06-29T23:03:09.648Z,98480.87
2018-06-29T23:05:36.983Z,98474.64
2018-06-29T23:08:04.876Z,98480.66
2018-06-29T23:10:32.167Z,98476.57
2018-06-29T23:12:59.419Z,98475.69
2018-06-29T23:15:26.714Z,98480.37
2018-06-29T23:17:53.962Z,98488.98
2018-06-29T23:20:21.224Z,98487.54
2018-06-29T23:22:48.498Z,98487.26
2018-06-29T23:25:16.006Z,98488.11
2018-06-29T23:27:43.242Z,98487.05
2018-06-29T23:30:10.523Z,98487.62
2018-06-29T23:32:37.778Z,98490.52
2018-06-29T23:35:05.231Z,98492.83
2018-06-29T23:37:32.498Z,98492.17
2018-06-29T23:39:59.807Z,98491.97
2018-06-29T23:42:27.073Z,98492.30
2018-06-29T23:44:54.337Z,98496.88
2018-06-29T23:47:21.659Z,98498.12
2018-06-29T23:49:48.982Z,98501.42
2018-06-29T23:52:16.333Z,98500.23
2018-06-29T23:54:43.650Z,98505.11
2018-06-29T23:57:11.001Z,98504.73
2018-06-29T23:59:38.242Z,98511.00
